sensor_id;sensor_type;location;lat;lon;timestamp;P1;durP1;ratioP1;P2;durP2;ratioP2
48911;SDS011;34722;52.108;5.044;2022-10-17T00:01:43;16.88;;;11.57;;
48911;SDS011;34722;52.108;5.044;2022-10-17T00:04:09;17.92;;;11.68;;
48911;SDS011;34722;52.108;5.044;2022-10-17T00:06:35;16.65;;;11.05;;
48911;SDS011;34722;52.108;5.044;2022-10-17T00:09:00;16.90;;;11.85;;
48911;SDS011;34722;52.108;5.044;2022-10-17T00:11:26;14.93;;;11.50;;
48911;SDS011;34722;52.108;5.044;2022-10-17T00:13:53;21.02;;;11.43;;
48911;SDS011;34722;52.108;5.044;2022-10-17T00:16:23;20.98;;;12.82;;
48911;SDS011;34722;52.108;5.044;2022-10-17T00:18:54;15.80;;;11.70;;
48911;SDS011;34722;52.108;5.044;2022-10-17T00:21:21;20.05;;;12.55;;
48911;SDS011;34722;52.108;5.044;2022-10-17T00:23:47;18.50;;;12.23;;
48911;SDS011;34722;52.108;5.044;2022-10-17T00:26:13;20.42;;;12.70;;
48911;SDS011;34722;52.108;5.044;2022-10-17T00:28:39;16.33;;;11.93;;
48911;SDS011;34722;52.108;5.044;2022-10-17T00:31:05;23.08;;;12.40;;
48911;SDS011;34722;52.108;5.044;2022-10-17T00:33:32;20.30;;;12.73;;
48911;SDS011;34722;52.108;5.044;2022-10-17T00:38:29;22.05;;;12.80;;
48911;SDS011;34722;52.108;5.044;2022-10-17T00:40:54;23.75;;;13.80;;
48911;SDS011;34722;52.108;5.044;2022-10-17T00:43:20;19.45;;;13.40;;
48911;SDS011;34722;52.108;5.044;2022-10-17T00:45:46;23.42;;;14.13;;
48911;SDS011;34722;52.108;5.044;2022-10-17T00:48:11;22.55;;;14.07;;
48911;SDS011;34722;52.108;5.044;2022-10-17T00:50:39;21.88;;;13.45;;
48911;SDS011;34722;52.108;5.044;2022-10-17T00:53:08;20.50;;;13.95;;
48911;SDS011;34722;52.108;5.044;2022-10-17T00:55:36;21.25;;;13.40;;
48911;SDS011;34722;52.108;5.044;2022-10-17T00:58:08;22.15;;;14.18;;
48911;SDS011;34722;52.108;5.044;2022-10-17T01:00:34;25.02;;;15.18;;
48911;SDS011;34722;52.108;5.044;2022-10-17T01:03:01;18.95;;;13.55;;
48911;SDS011;34722;52.108;5.044;2022-10-17T01:05:26;22.27;;;15.30;;
48911;SDS011;34722;52.108;5.044;2022-10-17T01:07:53;24.45;;;16.98;;
48911;SDS011;34722;52.108;5.044;2022-10-17T01:10:19;20.60;;;14.75;;
48911;SDS011;34722;52.108;5.044;2022-10-17T01:32:29;21.70;;;14.10;;
48911;SDS011;34722;52.108;5.044;2022-10-17T01:37:47;25.27;;;14.32;;
48911;SDS011;34722;52.108;5.044;2022-10-17T01:40:17;25.15;;;16.35;;
48911;SDS011;34722;52.108;5.044;2022-10-17T01:42:54;26.08;;;16.98;;
48911;SDS011;34722;52.108;5.044;2022-10-17T01:47:51;21.67;;;15.88;;
48911;SDS011;34722;52.108;5.044;2022-10-17T01:50:28;19.50;;;14.88;;
48911;SDS011;34722;52.108;5.044;2022-10-17T01:53:02;22.38;;;15.85;;
48911;SDS011;34722;52.108;5.044;2022-10-17T01:55:34;22.80;;;15.65;;
48911;SDS011;34722;52.108;5.044;2022-10-17T01:58:21;24.85;;;15.35;;
48911;SDS011;34722;52.108;5.044;2022-10-17T02:00:56;21.35;;;14.95;;
48911;SDS011;34722;52.108;5.044;2022-10-17T02:03:25;23.98;;;15.73;;
48911;SDS011;34722;52.108;5.044;2022-10-17T02:05:52;23.90;;;16.70;;
48911;SDS011;34722;52.108;5.044;2022-10-17T02:08:28;23.15;;;15.50;;
48911;SDS011;34722;52.108;5.044;2022-10-17T02:11:32;22.98;;;15.38;;
48911;SDS011;34722;52.108;5.044;2022-10-17T02:14:02;26.52;;;17.20;;
48911;SDS011;34722;52.108;5.044;2022-10-17T02:16:38;23.70;;;15.98;;
48911;SDS011;34722;52.108;5.044;2022-10-17T02:19:16;22.42;;;16.55;;
48911;SDS011;34722;52.108;5.044;2022-10-17T02:25:13;25.77;;;17.45;;
48911;SDS011;34722;52.108;5.044;2022-10-17T02:28:21;21.60;;;16.52;;
48911;SDS011;34722;52.108;5.044;2022-10-17T02:31:29;31.58;;;17.10;;
48911;SDS011;34722;52.108;5.044;2022-10-17T02:33:55;27.83;;;17.17;;
48911;SDS011;34722;52.108;5.044;2022-10-17T02:36:26;28.27;;;18.15;;
48911;SDS011;34722;52.108;5.044;2022-10-17T02:38:56;27.65;;;17.67;;
48911;SDS011;34722;52.108;5.044;2022-10-17T02:41:24;22.23;;;16.45;;
48911;SDS011;34722;52.108;5.044;2022-10-17T02:43:50;26.83;;;17.60;;
48911;SDS011;34722;52.108;5.044;2022-10-17T02:46:17;28.35;;;17.75;;
48911;SDS011;34722;52.108;5.044;2022-10-17T02:48:52;27.88;;;17.75;;
48911;SDS011;34722;52.108;5.044;2022-10-17T02:56:50;28.60;;;18.35;;
48911;SDS011;34722;52.108;5.044;2022-10-17T02:59:19;24.75;;;18.00;;
48911;SDS011;34722;52.108;5.044;2022-10-17T03:01:48;25.33;;;17.98;;
48911;SDS011;34722;52.108;5.044;2022-10-17T03:04:15;26.80;;;18.23;;
48911;SDS011;34722;52.108;5.044;2022-10-17T03:06:42;30.50;;;18.90;;
48911;SDS011;34722;52.108;5.044;2022-10-17T03:09:08;27.20;;;18.08;;
48911;SDS011;34722;52.108;5.044;2022-10-17T03:11:34;29.35;;;19.02;;
48911;SDS011;34722;52.108;5.044;2022-10-17T03:14:00;25.77;;;16.90;;
48911;SDS011;34722;52.108;5.044;2022-10-17T03:16:25;27.52;;;18.05;;
48911;SDS011;34722;52.108;5.044;2022-10-17T03:18:51;24.42;;;17.83;;
48911;SDS011;34722;52.108;5.044;2022-10-17T03:21:17;24.98;;;17.48;;
48911;SDS011;34722;52.108;5.044;2022-10-17T03:23:42;28.13;;;17.77;;
48911;SDS011;34722;52.108;5.044;2022-10-17T03:26:08;25.25;;;17.98;;
48911;SDS011;34722;52.108;5.044;2022-10-17T03:28:34;28.67;;;17.20;;
48911;SDS011;34722;52.108;5.044;2022-10-17T03:31:05;28.40;;;18.17;;
48911;SDS011;34722;52.108;5.044;2022-10-17T03:33:31;28.83;;;18.13;;
48911;SDS011;34722;52.108;5.044;2022-10-17T03:35:57;24.75;;;18.02;;
48911;SDS011;34722;52.108;5.044;2022-10-17T03:38:22;25.17;;;17.80;;
48911;SDS011;34722;52.108;5.044;2022-10-17T03:40:54;25.48;;;17.85;;
48911;SDS011;34722;52.108;5.044;2022-10-17T03:43:21;25.92;;;17.98;;
48911;SDS011;34722;52.108;5.044;2022-10-17T03:45:46;24.58;;;16.77;;
48911;SDS011;34722;52.108;5.044;2022-10-17T03:48:12;26.80;;;16.90;;
48911;SDS011;34722;52.108;5.044;2022-10-17T03:50:38;25.75;;;16.60;;
48911;SDS011;34722;52.108;5.044;2022-10-17T03:53:03;28.85;;;16.55;;
48911;SDS011;34722;52.108;5.044;2022-10-17T03:55:29;21.50;;;16.17;;
48911;SDS011;34722;52.108;5.044;2022-10-17T03:57:54;24.85;;;17.75;;
48911;SDS011;34722;52.108;5.044;2022-10-17T04:00:20;22.98;;;15.95;;
48911;SDS011;34722;52.108;5.044;2022-10-17T04:02:46;26.02;;;17.63;;
48911;SDS011;34722;52.108;5.044;2022-10-17T04:05:11;26.02;;;16.02;;
48911;SDS011;34722;52.108;5.044;2022-10-17T04:07:37;24.27;;;18.10;;
48911;SDS011;34722;52.108;5.044;2022-10-17T04:10:03;28.55;;;17.40;;
48911;SDS011;34722;52.108;5.044;2022-10-17T04:12:29;34.95;;;19.25;;
48911;SDS011;34722;52.108;5.044;2022-10-17T04:14:55;27.33;;;18.50;;
48911;SDS011;34722;52.108;5.044;2022-10-17T04:17:21;28.38;;;17.63;;
48911;SDS011;34722;52.108;5.044;2022-10-17T04:19:47;23.88;;;16.30;;
48911;SDS011;34722;52.108;5.044;2022-10-17T04:22:13;25.85;;;17.15;;
48911;SDS011;34722;52.108;5.044;2022-10-17T04:24:42;23.95;;;17.00;;
48911;SDS011;34722;52.108;5.044;2022-10-17T04:27:08;26.60;;;16.88;;
48911;SDS011;34722;52.108;5.044;2022-10-17T04:29:34;28.45;;;17.83;;
48911;SDS011;34722;52.108;5.044;2022-10-17T04:31:59;24.20;;;15.85;;
48911;SDS011;34722;52.108;5.044;2022-10-17T04:34:25;21.40;;;15.30;;
48911;SDS011;34722;52.108;5.044;2022-10-17T04:36:51;26.75;;;16.85;;
48911;SDS011;34722;52.108;5.044;2022-10-17T04:39:16;25.70;;;16.75;;
48911;SDS011;34722;52.108;5.044;2022-10-17T04:41:42;22.98;;;17.10;;
48911;SDS011;34722;52.108;5.044;2022-10-17T04:44:09;22.65;;;14.90;;
48911;SDS011;34722;52.108;5.044;2022-10-17T04:46:35;24.13;;;15.80;;
48911;SDS011;34722;52.108;5.044;2022-10-17T04:49:01;22.25;;;16.70;;
48911;SDS011;34722;52.108;5.044;2022-10-17T04:51:31;24.10;;;16.42;;
48911;SDS011;34722;52.108;5.044;2022-10-17T04:53:57;25.00;;;15.95;;
48911;SDS011;34722;52.108;5.044;2022-10-17T04:56:23;21.33;;;16.23;;
48911;SDS011;34722;52.108;5.044;2022-10-17T04:58:49;21.23;;;15.40;;
48911;SDS011;34722;52.108;5.044;2022-10-17T05:01:16;21.83;;;16.08;;
48911;SDS011;34722;52.108;5.044;2022-10-17T05:03:44;28.52;;;16.58;;
48911;SDS011;34722;52.108;5.044;2022-10-17T05:06:15;23.10;;;16.85;;
48911;SDS011;34722;52.108;5.044;2022-10-17T05:08:44;21.40;;;15.23;;
48911;SDS011;34722;52.108;5.044;2022-10-17T05:11:23;26.25;;;15.60;;
48911;SDS011;34722;52.108;5.044;2022-10-17T05:13:58;23.42;;;15.80;;
48911;SDS011;34722;52.108;5.044;2022-10-17T05:16:25;22.48;;;16.15;;
48911;SDS011;34722;52.108;5.044;2022-10-17T05:18:53;24.45;;;16.35;;
48911;SDS011;34722;52.108;5.044;2022-10-17T05:21:21;28.33;;;15.88;;
48911;SDS011;34722;52.108;5.044;2022-10-17T05:23:48;20.67;;;14.63;;
48911;SDS011;34722;52.108;5.044;2022-10-17T05:26:14;21.48;;;15.10;;
48911;SDS011;34722;52.108;5.044;2022-10-17T05:28:39;24.13;;;14.70;;
48911;SDS011;34722;52.108;5.044;2022-10-17T05:31:06;25.77;;;15.27;;
48911;SDS011;34722;52.108;5.044;2022-10-17T05:33:34;21.40;;;15.38;;
48911;SDS011;34722;52.108;5.044;2022-10-17T05:36:00;23.35;;;14.20;;
48911;SDS011;34722;52.108;5.044;2022-10-17T05:38:26;22.42;;;15.40;;
48911;SDS011;34722;52.108;5.044;2022-10-17T05:40:56;27.67;;;15.23;;
48911;SDS011;34722;52.108;5.044;2022-10-17T05:43:24;21.65;;;14.82;;
48911;SDS011;34722;52.108;5.044;2022-10-17T05:45:51;22.10;;;15.40;;
48911;SDS011;34722;52.108;5.044;2022-10-17T05:48:17;23.17;;;14.00;;
48911;SDS011;34722;52.108;5.044;2022-10-17T05:50:43;22.42;;;14.88;;
48911;SDS011;34722;52.108;5.044;2022-10-17T05:53:09;24.00;;;15.25;;
48911;SDS011;34722;52.108;5.044;2022-10-17T05:55:35;24.90;;;15.48;;
48911;SDS011;34722;52.108;5.044;2022-10-17T05:58:01;25.38;;;14.32;;
48911;SDS011;34722;52.108;5.044;2022-10-17T06:00:27;26.63;;;15.40;;
48911;SDS011;34722;52.108;5.044;2022-10-17T06:02:52;21.38;;;13.75;;
48911;SDS011;34722;52.108;5.044;2022-10-17T06:05:18;22.05;;;15.23;;
48911;SDS011;34722;52.108;5.044;2022-10-17T06:07:44;24.33;;;15.40;;
48911;SDS011;34722;52.108;5.044;2022-10-17T06:10:10;20.88;;;16.23;;
48911;SDS011;34722;52.108;5.044;2022-10-17T06:12:38;27.85;;;16.58;;
48911;SDS011;34722;52.108;5.044;2022-10-17T06:15:04;20.52;;;16.13;;
48911;SDS011;34722;52.108;5.044;2022-10-17T06:17:30;23.67;;;15.95;;
48911;SDS011;34722;52.108;5.044;2022-10-17T06:19:56;22.23;;;15.80;;
48911;SDS011;34722;52.108;5.044;2022-10-17T06:22:22;23.20;;;15.10;;
48911;SDS011;34722;52.108;5.044;2022-10-17T06:24:47;28.75;;;17.33;;
48911;SDS011;34722;52.108;5.044;2022-10-17T06:27:13;23.80;;;16.52;;
48911;SDS011;34722;52.108;5.044;2022-10-17T06:29:39;24.77;;;15.65;;
48911;SDS011;34722;52.108;5.044;2022-10-17T06:32:05;24.45;;;15.60;;
48911;SDS011;34722;52.108;5.044;2022-10-17T06:34:31;19.70;;;15.13;;
48911;SDS011;34722;52.108;5.044;2022-10-17T06:36:56;21.55;;;14.88;;
48911;SDS011;34722;52.108;5.044;2022-10-17T06:39:22;25.63;;;15.13;;
48911;SDS011;34722;52.108;5.044;2022-10-17T06:41:50;21.38;;;15.93;;
48911;SDS011;34722;52.108;5.044;2022-10-17T06:44:16;26.58;;;15.90;;
48911;SDS011;34722;52.108;5.044;2022-10-17T06:46:42;34.22;;;15.93;;
48911;SDS011;34722;52.108;5.044;2022-10-17T06:49:08;24.45;;;14.75;;
48911;SDS011;34722;52.108;5.044;2022-10-17T06:51:34;21.67;;;14.80;;
48911;SDS011;34722;52.108;5.044;2022-10-17T06:54:01;27.77;;;16.48;;
48911;SDS011;34722;52.108;5.044;2022-10-17T06:56:27;25.15;;;13.80;;
48911;SDS011;34722;52.108;5.044;2022-10-17T06:58:53;31.52;;;15.13;;
48911;SDS011;34722;52.108;5.044;2022-10-17T07:01:19;20.75;;;14.25;;
48911;SDS011;34722;52.108;5.044;2022-10-17T07:03:46;23.65;;;14.02;;
48911;SDS011;34722;52.108;5.044;2022-10-17T07:06:13;21.08;;;14.93;;
48911;SDS011;34722;52.108;5.044;2022-10-17T07:08:42;23.67;;;13.13;;
48911;SDS011;34722;52.108;5.044;2022-10-17T07:11:13;25.02;;;14.27;;
48911;SDS011;34722;52.108;5.044;2022-10-17T07:13:40;27.85;;;15.52;;
48911;SDS011;34722;52.108;5.044;2022-10-17T07:16:06;22.50;;;14.40;;
48911;SDS011;34722;52.108;5.044;2022-10-17T07:18:32;20.02;;;13.60;;
48911;SDS011;34722;52.108;5.044;2022-10-17T07:20:58;17.95;;;12.52;;
48911;SDS011;34722;52.108;5.044;2022-10-17T07:23:25;19.40;;;13.07;;
48911;SDS011;34722;52.108;5.044;2022-10-17T07:25:51;22.80;;;13.75;;
48911;SDS011;34722;52.108;5.044;2022-10-17T07:28:17;17.85;;;14.45;;
48911;SDS011;34722;52.108;5.044;2022-10-17T07:30:43;17.77;;;12.95;;
48911;SDS011;34722;52.108;5.044;2022-10-17T07:33:09;21.17;;;13.38;;
48911;SDS011;34722;52.108;5.044;2022-10-17T07:35:36;25.00;;;13.32;;
48911;SDS011;34722;52.108;5.044;2022-10-17T07:38:05;18.63;;;14.20;;
48911;SDS011;34722;52.108;5.044;2022-10-17T07:40:31;21.02;;;13.32;;
48911;SDS011;34722;52.108;5.044;2022-10-17T07:42:56;18.27;;;13.52;;
48911;SDS011;34722;52.108;5.044;2022-10-17T07:45:22;28.15;;;14.52;;
48911;SDS011;34722;52.108;5.044;2022-10-17T07:47:48;22.45;;;15.63;;
48911;SDS011;34722;52.108;5.044;2022-10-17T07:50:13;22.27;;;15.02;;
48911;SDS011;34722;52.108;5.044;2022-10-17T07:52:39;23.27;;;15.05;;
48911;SDS011;34722;52.108;5.044;2022-10-17T07:55:07;28.00;;;15.35;;
48911;SDS011;34722;52.108;5.044;2022-10-17T07:57:33;24.45;;;15.15;;
48911;SDS011;34722;52.108;5.044;2022-10-17T07:59:59;23.75;;;14.80;;
48911;SDS011;34722;52.108;5.044;2022-10-17T08:02:25;22.80;;;16.27;;
48911;SDS011;34722;52.108;5.044;2022-10-17T08:04:51;26.90;;;16.25;;
48911;SDS011;34722;52.108;5.044;2022-10-17T08:07:18;27.50;;;18.10;;
48911;SDS011;34722;52.108;5.044;2022-10-17T08:09:45;24.13;;;17.35;;
48911;SDS011;34722;52.108;5.044;2022-10-17T08:12:11;27.73;;;17.30;;
48911;SDS011;34722;52.108;5.044;2022-10-17T08:14:41;28.35;;;17.23;;
48911;SDS011;34722;52.108;5.044;2022-10-17T08:17:07;29.70;;;18.15;;
48911;SDS011;34722;52.108;5.044;2022-10-17T08:19:36;31.05;;;17.98;;
48911;SDS011;34722;52.108;5.044;2022-10-17T08:22:03;42.58;;;19.52;;
48911;SDS011;34722;52.108;5.044;2022-10-17T08:24:28;34.70;;;19.65;;
48911;SDS011;34722;52.108;5.044;2022-10-17T08:26:54;33.58;;;20.30;;
48911;SDS011;34722;52.108;5.044;2022-10-17T08:29:22;33.15;;;20.58;;
48911;SDS011;34722;52.108;5.044;2022-10-17T08:31:47;34.72;;;19.40;;
48911;SDS011;34722;52.108;5.044;2022-10-17T08:34:13;34.15;;;20.52;;
48911;SDS011;34722;52.108;5.044;2022-10-17T08:36:39;39.38;;;19.40;;
48911;SDS011;34722;52.108;5.044;2022-10-17T08:39:05;34.15;;;19.25;;
48911;SDS011;34722;52.108;5.044;2022-10-17T08:44:29;36.65;;;20.40;;
48911;SDS011;34722;52.108;5.044;2022-10-17T08:46:58;33.97;;;20.50;;
48911;SDS011;34722;52.108;5.044;2022-10-17T08:49:36;46.50;;;20.95;;
48911;SDS011;34722;52.108;5.044;2022-10-17T08:55:02;38.78;;;21.35;;
48911;SDS011;34722;52.108;5.044;2022-10-17T08:57:28;38.35;;;21.30;;
48911;SDS011;34722;52.108;5.044;2022-10-17T08:59:54;32.83;;;20.42;;
48911;SDS011;34722;52.108;5.044;2022-10-17T09:02:38;42.38;;;21.10;;
48911;SDS011;34722;52.108;5.044;2022-10-17T09:16:27;36.70;;;21.85;;
48911;SDS011;34722;52.108;5.044;2022-10-17T09:19:24;35.72;;;20.92;;
48911;SDS011;34722;52.108;5.044;2022-10-17T09:21:57;43.53;;;21.10;;
48911;SDS011;34722;52.108;5.044;2022-10-17T09:24:32;39.78;;;22.52;;
48911;SDS011;34722;52.108;5.044;2022-10-17T09:27:03;37.92;;;21.40;;
48911;SDS011;34722;52.108;5.044;2022-10-17T09:29:33;34.25;;;21.00;;
48911;SDS011;34722;52.108;5.044;2022-10-17T09:32:03;37.28;;;20.27;;
48911;SDS011;34722;52.108;5.044;2022-10-17T09:34:39;38.08;;;20.63;;
48911;SDS011;34722;52.108;5.044;2022-10-17T09:37:06;39.88;;;19.67;;
48911;SDS011;34722;52.108;5.044;2022-10-17T09:39:38;38.03;;;21.38;;
48911;SDS011;34722;52.108;5.044;2022-10-17T09:42:05;32.92;;;20.52;;
48911;SDS011;34722;52.108;5.044;2022-10-17T09:50:08;39.58;;;21.35;;
48911;SDS011;34722;52.108;5.044;2022-10-17T09:52:44;36.92;;;20.88;;
48911;SDS011;34722;52.108;5.044;2022-10-17T09:57:56;39.33;;;21.08;;
48911;SDS011;34722;52.108;5.044;2022-10-17T10:00:46;36.17;;;19.17;;
48911;SDS011;34722;52.108;5.044;2022-10-17T10:05:39;35.70;;;20.60;;
48911;SDS011;34722;52.108;5.044;2022-10-17T10:08:15;32.13;;;20.33;;
48911;SDS011;34722;52.108;5.044;2022-10-17T10:10:43;34.67;;;20.55;;
48911;SDS011;34722;52.108;5.044;2022-10-17T10:15:39;35.75;;;20.60;;
48911;SDS011;34722;52.108;5.044;2022-10-17T10:23:36;38.53;;;22.58;;
48911;SDS011;34722;52.108;5.044;2022-10-17T10:26:25;33.53;;;20.90;;
48911;SDS011;34722;52.108;5.044;2022-10-17T10:29:03;39.63;;;21.55;;
48911;SDS011;34722;52.108;5.044;2022-10-17T10:31:35;39.88;;;22.60;;
48911;SDS011;34722;52.108;5.044;2022-10-17T10:36:49;29.80;;;19.15;;
48911;SDS011;34722;52.108;5.044;2022-10-17T10:39:28;31.98;;;19.75;;
48911;SDS011;34722;52.108;5.044;2022-10-17T10:42:07;32.13;;;18.90;;
48911;SDS011;34722;52.108;5.044;2022-10-17T10:44:43;30.75;;;19.17;;
48911;SDS011;34722;52.108;5.044;2022-10-17T10:49:51;26.23;;;18.40;;
48911;SDS011;34722;52.108;5.044;2022-10-17T10:52:42;23.15;;;15.13;;
48911;SDS011;34722;52.108;5.044;2022-10-17T10:55:40;24.45;;;16.60;;
48911;SDS011;34722;52.108;5.044;2022-10-17T11:01:20;18.60;;;13.65;;
48911;SDS011;34722;52.108;5.044;2022-10-17T11:04:07;22.58;;;15.88;;
48911;SDS011;34722;52.108;5.044;2022-10-17T11:06:51;23.48;;;14.10;;
48911;SDS011;34722;52.108;5.044;2022-10-17T11:09:44;20.08;;;13.43;;
48911;SDS011;34722;52.108;5.044;2022-10-17T11:12:40;20.23;;;13.73;;
48911;SDS011;34722;52.108;5.044;2022-10-17T11:18:02;19.00;;;14.02;;
48911;SDS011;34722;52.108;5.044;2022-10-17T11:20:51;19.02;;;13.43;;
48911;SDS011;34722;52.108;5.044;2022-10-17T11:25:58;28.00;;;18.02;;
48911;SDS011;34722;52.108;5.044;2022-10-17T11:28:28;37.13;;;22.05;;
48911;SDS011;34722;52.108;5.044;2022-10-17T11:36:27;40.75;;;21.88;;
48911;SDS011;34722;52.108;5.044;2022-10-17T11:41:55;39.03;;;22.90;;
48911;SDS011;34722;52.108;5.044;2022-10-17T11:44:36;34.75;;;22.20;;
48911;SDS011;34722;52.108;5.044;2022-10-17T11:47:16;36.50;;;23.52;;
48911;SDS011;34722;52.108;5.044;2022-10-17T11:50:44;38.70;;;22.70;;
48911;SDS011;34722;52.108;5.044;2022-10-17T11:52:57;38.03;;;22.13;;
48911;SDS011;34722;52.108;5.044;2022-10-17T11:55:35;37.78;;;23.45;;
48911;SDS011;34722;52.108;5.044;2022-10-17T12:09:58;17.90;;;13.20;;
48911;SDS011;34722;52.108;5.044;2022-10-17T12:12:40;19.02;;;12.68;;
48911;SDS011;34722;52.108;5.044;2022-10-17T12:17:36;22.08;;;12.50;;
48911;SDS011;34722;52.108;5.044;2022-10-17T12:22:55;18.27;;;13.32;;
48911;SDS011;34722;52.108;5.044;2022-10-17T12:25:31;13.35;;;10.80;;
48911;SDS011;34722;52.108;5.044;2022-10-17T12:28:07;16.85;;;11.77;;
48911;SDS011;34722;52.108;5.044;2022-10-17T12:30:37;16.27;;;12.60;;
48911;SDS011;34722;52.108;5.044;2022-10-17T12:33:28;15.60;;;12.07;;
48911;SDS011;34722;52.108;5.044;2022-10-17T12:38:48;20.90;;;13.32;;
48911;SDS011;34722;52.108;5.044;2022-10-17T12:41:16;16.13;;;11.70;;
48911;SDS011;34722;52.108;5.044;2022-10-17T12:49:46;15.27;;;10.73;;
48911;SDS011;34722;52.108;5.044;2022-10-17T12:54:44;13.27;;;10.32;;
48911;SDS011;34722;52.108;5.044;2022-10-17T12:57:22;16.00;;;10.80;;
48911;SDS011;34722;52.108;5.044;2022-10-17T12:59:55;13.68;;;9.65;;
48911;SDS011;34722;52.108;5.044;2022-10-17T13:02:22;11.90;;;9.82;;
48911;SDS011;34722;52.108;5.044;2022-10-17T13:04:52;11.43;;;9.40;;
48911;SDS011;34722;52.108;5.044;2022-10-17T13:07:27;11.65;;;8.75;;
48911;SDS011;34722;52.108;5.044;2022-10-17T13:09:53;12.27;;;8.27;;
48911;SDS011;34722;52.108;5.044;2022-10-17T13:12:31;11.82;;;9.45;;
48911;SDS011;34722;52.108;5.044;2022-10-17T13:15:10;11.98;;;9.23;;
48911;SDS011;34722;52.108;5.044;2022-10-17T13:17:43;11.10;;;8.95;;
48911;SDS011;34722;52.108;5.044;2022-10-17T13:20:17;11.15;;;8.40;;
48911;SDS011;34722;52.108;5.044;2022-10-17T13:22:55;9.77;;;8.73;;
48911;SDS011;34722;52.108;5.044;2022-10-17T13:25:22;14.10;;;8.10;;
48911;SDS011;34722;52.108;5.044;2022-10-17T13:28:02;12.43;;;8.77;;
48911;SDS011;34722;52.108;5.044;2022-10-17T13:30:34;12.02;;;9.25;;
48911;SDS011;34722;52.108;5.044;2022-10-17T13:33:15;11.00;;;9.57;;
48911;SDS011;34722;52.108;5.044;2022-10-17T13:35:52;16.23;;;10.80;;
48911;SDS011;34722;52.108;5.044;2022-10-17T13:38:23;15.38;;;11.52;;
48911;SDS011;34722;52.108;5.044;2022-10-17T13:40:52;14.10;;;10.98;;
48911;SDS011;34722;52.108;5.044;2022-10-17T13:43:19;14.18;;;11.07;;
48911;SDS011;34722;52.108;5.044;2022-10-17T13:45:52;14.77;;;11.70;;
48911;SDS011;34722;52.108;5.044;2022-10-17T13:48:29;16.88;;;11.90;;
48911;SDS011;34722;52.108;5.044;2022-10-17T13:50:58;13.35;;;11.45;;
48911;SDS011;34722;52.108;5.044;2022-10-17T13:58:53;17.08;;;12.98;;
48911;SDS011;34722;52.108;5.044;2022-10-17T14:01:21;17.58;;;12.85;;
48911;SDS011;34722;52.108;5.044;2022-10-17T14:03:48;18.77;;;12.68;;
48911;SDS011;34722;52.108;5.044;2022-10-17T14:06:21;18.70;;;12.80;;
48911;SDS011;34722;52.108;5.044;2022-10-17T14:08:53;14.13;;;12.18;;
48911;SDS011;34722;52.108;5.044;2022-10-17T14:11:29;15.43;;;11.73;;
48911;SDS011;34722;52.108;5.044;2022-10-17T14:14:02;16.10;;;12.50;;
48911;SDS011;34722;52.108;5.044;2022-10-17T14:16:37;15.95;;;12.90;;
48911;SDS011;34722;52.108;5.044;2022-10-17T14:19:05;14.77;;;12.70;;
48911;SDS011;34722;52.108;5.044;2022-10-17T14:21:47;12.98;;;11.57;;
48911;SDS011;34722;52.108;5.044;2022-10-17T14:26:46;14.20;;;12.50;;
48911;SDS011;34722;52.108;5.044;2022-10-17T14:29:31;19.92;;;12.45;;
48911;SDS011;34722;52.108;5.044;2022-10-17T14:32:13;15.32;;;13.00;;
48911;SDS011;34722;52.108;5.044;2022-10-17T14:34:39;18.95;;;13.25;;
48911;SDS011;34722;52.108;5.044;2022-10-17T14:37:16;15.27;;;13.30;;
48911;SDS011;34722;52.108;5.044;2022-10-17T14:39:48;20.15;;;13.68;;
48911;SDS011;34722;52.108;5.044;2022-10-17T14:42:18;19.88;;;12.55;;
48911;SDS011;34722;52.108;5.044;2022-10-17T14:44:47;12.60;;;11.23;;
48911;SDS011;34722;52.108;5.044;2022-10-17T14:47:19;12.70;;;10.55;;
48911;SDS011;34722;52.108;5.044;2022-10-17T14:49:50;18.40;;;11.15;;
48911;SDS011;34722;52.108;5.044;2022-10-17T14:52:27;15.20;;;10.93;;
48911;SDS011;34722;52.108;5.044;2022-10-17T14:54:53;13.52;;;11.45;;
48911;SDS011;34722;52.108;5.044;2022-10-17T14:59:58;16.92;;;11.40;;
48911;SDS011;34722;52.108;5.044;2022-10-17T15:02:25;14.00;;;9.75;;
48911;SDS011;34722;52.108;5.044;2022-10-17T15:04:53;11.02;;;9.65;;
48911;SDS011;34722;52.108;5.044;2022-10-17T15:07:20;12.70;;;9.00;;
48911;SDS011;34722;52.108;5.044;2022-10-17T15:09:46;13.55;;;8.80;;
48911;SDS011;34722;52.108;5.044;2022-10-17T15:12:18;15.40;;;8.57;;
48911;SDS011;34722;52.108;5.044;2022-10-17T15:14:46;10.98;;;7.80;;
48911;SDS011;34722;52.108;5.044;2022-10-17T15:17:33;11.13;;;8.05;;
48911;SDS011;34722;52.108;5.044;2022-10-17T15:19:58;16.02;;;9.35;;
48911;SDS011;34722;52.108;5.044;2022-10-17T15:22:24;13.95;;;8.80;;
48911;SDS011;34722;52.108;5.044;2022-10-17T15:24:50;14.32;;;9.57;;
48911;SDS011;34722;52.108;5.044;2022-10-17T15:27:17;12.98;;;8.48;;
48911;SDS011;34722;52.108;5.044;2022-10-17T15:29:44;11.30;;;8.50;;
48911;SDS011;34722;52.108;5.044;2022-10-17T15:32:10;19.58;;;9.75;;
48911;SDS011;34722;52.108;5.044;2022-10-17T15:34:36;15.70;;;9.50;;
48911;SDS011;34722;52.108;5.044;2022-10-17T15:37:02;11.55;;;9.18;;
48911;SDS011;34722;52.108;5.044;2022-10-17T15:39:29;16.50;;;9.55;;
48911;SDS011;34722;52.108;5.044;2022-10-17T15:41:55;11.13;;;9.68;;
48911;SDS011;34722;52.108;5.044;2022-10-17T15:44:24;15.18;;;9.70;;
48911;SDS011;34722;52.108;5.044;2022-10-17T15:46:49;17.50;;;9.48;;
48911;SDS011;34722;52.108;5.044;2022-10-17T15:49:16;14.75;;;8.82;;
48911;SDS011;34722;52.108;5.044;2022-10-17T15:51:43;12.18;;;8.07;;
48911;SDS011;34722;52.108;5.044;2022-10-17T15:54:09;12.40;;;8.63;;
48911;SDS011;34722;52.108;5.044;2022-10-17T15:56:46;13.50;;;8.68;;
48911;SDS011;34722;52.108;5.044;2022-10-17T15:59:17;13.73;;;9.07;;
48911;SDS011;34722;52.108;5.044;2022-10-17T16:01:46;11.48;;;8.15;;
48911;SDS011;34722;52.108;5.044;2022-10-17T16:04:15;13.32;;;9.30;;
48911;SDS011;34722;52.108;5.044;2022-10-17T16:06:42;12.75;;;8.98;;
48911;SDS011;34722;52.108;5.044;2022-10-17T16:09:08;12.40;;;8.52;;
48911;SDS011;34722;52.108;5.044;2022-10-17T16:14:05;18.13;;;8.00;;
48911;SDS011;34722;52.108;5.044;2022-10-17T16:16:34;15.48;;;7.97;;
48911;SDS011;34722;52.108;5.044;2022-10-17T16:18:59;11.48;;;7.53;;
48911;SDS011;34722;52.108;5.044;2022-10-17T16:21:26;11.98;;;7.28;;
48911;SDS011;34722;52.108;5.044;2022-10-17T16:23:54;13.15;;;7.32;;
48911;SDS011;34722;52.108;5.044;2022-10-17T16:26:20;17.63;;;7.60;;
48911;SDS011;34722;52.108;5.044;2022-10-17T16:28:46;11.18;;;6.30;;
48911;SDS011;34722;52.108;5.044;2022-10-17T16:31:20;11.68;;;7.18;;
48911;SDS011;34722;52.108;5.044;2022-10-17T16:33:48;14.05;;;6.78;;
48911;SDS011;34722;52.108;5.044;2022-10-17T16:36:14;10.82;;;6.75;;
48911;SDS011;34722;52.108;5.044;2022-10-17T16:38:40;16.40;;;7.13;;
48911;SDS011;34722;52.108;5.044;2022-10-17T16:41:23;13.25;;;6.85;;
48911;SDS011;34722;52.108;5.044;2022-10-17T16:43:51;11.15;;;6.75;;
48911;SDS011;34722;52.108;5.044;2022-10-17T16:46:20;11.07;;;7.60;;
48911;SDS011;34722;52.108;5.044;2022-10-17T16:48:47;17.20;;;6.95;;
48911;SDS011;34722;52.108;5.044;2022-10-17T16:51:13;12.05;;;7.03;;
48911;SDS011;34722;52.108;5.044;2022-10-17T16:53:40;10.40;;;7.15;;
48911;SDS011;34722;52.108;5.044;2022-10-17T16:56:10;10.95;;;7.22;;